CheckWX is a tool to help pilots better visualize weather data.  It is not intended as a substitute for an official pre-flight weather briefing.

14:34:56 UTC

KLAN METAR
Capital Region International Airport
Lansing, Michigan, USA
Current

25 mins ago

KLAN 261410Z 32014KT 10SM FEW020 BKN034 OVC060 12/07 A2958 RMK AO2 T01170072
Observed
Apr-26 @ 14:10 UTC
Wind
  • 320° at 14 KTS
Visibility
10 SM
Flight Rules
VFR
Cloud Levels
  • Few at 2,000' AGL
  • Broken at 3,400' AGL
  • Overcast at 6,000' AGL
Temperature
12°C / 54°F
Dewpoint
C / 45°F
Humidity
72%
Altimeter
29.58" Hg
Pressure
1001.72 hPa
Previous

42 mins ago

KLAN 261353Z 33010G20KT 10SM BKN020 BKN028 OVC060 11/07 A2957 RMK AO2 SLP015 T01110067
Observed
Apr-26 @ 13:53 UTC
Wind
  • 330° at 10 KTS
  • Gusting to 20 KTS
Visibility
10 SM
Flight Rules
MVFR
Cloud Levels
  • Broken at 2,000' AGL
  • Broken at 2,800' AGL
  • Overcast at 6,000' AGL
Temperature
11°C / 52°F
Dewpoint
C / 45°F
Humidity
77%
Altimeter
29.57" Hg
Pressure
1001.32 hPa
Previous

58 mins ago

KLAN 261337Z 33010G20KT 10SM BKN020 OVC060 11/07 A2957 RMK AO2 T01110072
Observed
Apr-26 @ 13:37 UTC
Wind
  • 330° at 10 KTS
  • Gusting to 20 KTS
Visibility
10 SM
Flight Rules
MVFR
Cloud Levels
  • Broken at 2,000' AGL
  • Overcast at 6,000' AGL
Temperature
11°C / 52°F
Dewpoint
C / 45°F
Humidity
77%
Altimeter
29.57" Hg
Pressure
1001.32 hPa